Time;durP1;ratioP1;P1;durP2;ratioP2;P2;SDS_P1;SDS_P2;PMS_P1;PMS_P2;Temp;Humidity;BMP_temperature;BMP_pressure;BME280_temperature;BME280_humidity;BME280_pressure;Samples;Min_cycle;Max_cycle;Signal;HPM_P1;HPM_P2
2024/04/02 00:01:36;;;;;;;13.70;5.60;;;;;;;12.74;100.00;100003.73;109376;1251;72750;-55
2024/04/02 00:04:13;;;;;;;13.10;5.30;;;;;;;12.74;100.00;100000.12;109441;1251;60583;-54
2024/04/02 00:06:41;;;;;;;14.20;5.70;;;;;;;12.73;100.00;99996.70;109483;1251;60127;-55
2024/04/02 00:09:08;;;;;;;12.00;4.90;;;;;;;12.74;100.00;99993.60;109523;1250;75429;-55
2024/04/02 00:11:36;;;;;;;9.40;5.00;;;;;;;12.76;100.00;99989.88;109481;1256;65869;-58
2024/04/02 00:14:03;;;;;;;12.30;5.30;;;;;;;12.78;100.00;99986.32;109427;1250;73532;-55
2024/04/02 00:16:31;;;;;;;11.30;4.80;;;;;;;12.81;100.00;99985.38;109506;1251;59769;-54
2024/04/02 00:18:58;;;;;;;13.20;5.80;;;;;;;12.84;100.00;99989.72;109505;1251;60109;-54
2024/04/02 00:21:26;;;;;;;13.40;5.60;;;;;;;12.83;100.00;99988.87;109512;1250;74722;-54
2024/04/02 00:23:53;;;;;;;13.00;5.10;;;;;;;12.80;100.00;99982.41;109429;1251;65657;-58
2024/04/02 00:26:21;;;;;;;11.90;4.00;;;;;;;12.77;100.00;99981.21;109454;1251;71437;-54
2024/04/02 00:28:49;;;;;;;16.50;5.80;;;;;;;12.75;100.00;99981.64;109478;1253;59790;-54
2024/04/02 00:31:16;;;;;;;9.10;4.70;;;;;;;12.72;100.00;99983.95;109465;1251;60212;-54
2024/04/02 00:33:46;;;;;;;13.30;5.20;;;;;;;12.69;100.00;99986.73;109481;1250;75648;-54
2024/04/02 00:36:14;;;;;;;10.30;4.50;;;;;;;12.66;100.00;99991.88;109501;1251;68257;-54
2024/04/02 00:38:41;;;;;;;14.50;5.00;;;;;;;12.62;100.00;99992.09;109466;1253;72707;-54
2024/04/02 00:41:09;;;;;;;11.50;5.00;;;;;;;12.58;100.00;99996.67;109468;1250;60202;-54
2024/04/02 00:43:36;;;;;;;15.20;4.40;;;;;;;12.53;100.00;99996.91;109490;1251;60123;-54
2024/04/02 00:46:04;;;;;;;11.70;5.30;;;;;;;12.48;100.00;99999.94;109451;1250;74373;-58
2024/04/02 00:48:31;;;;;;;13.20;5.30;;;;;;;12.45;100.00;99997.16;109490;1251;66897;-54
2024/04/02 00:50:58;;;;;;;10.90;5.60;;;;;;;12.41;100.00;99998.52;109482;1251;72754;-54
2024/04/02 00:53:26;;;;;;;10.20;4.30;;;;;;;12.35;100.00;99998.08;109481;1251;60081;-55
2024/04/02 00:55:53;;;;;;;9.40;4.80;;;;;;;12.31;100.00;99998.48;109486;1250;59870;-54
2024/04/02 00:58:21;;;;;;;12.90;5.40;;;;;;;12.25;100.00;99995.51;109396;1251;74543;-58
2024/04/02 01:00:50;;;;;;;13.50;4.90;;;;;;;12.19;100.00;100001.69;109559;1251;66785;-54
2024/04/02 01:03:17;;;;;;;11.00;4.80;;;;;;;12.14;100.00;99997.98;109486;1252;72791;-54
2024/04/02 01:05:44;;;;;;;11.30;4.70;;;;;;;12.08;100.00;99996.36;109457;1251;60547;-54
2024/04/02 01:08:12;;;;;;;12.90;5.60;;;;;;;12.01;100.00;99997.36;109418;1250;59730;-54
2024/04/02 01:10:39;;;;;;;11.80;5.40;;;;;;;11.94;100.00;99996.58;109510;1251;74267;-54
2024/04/02 01:13:08;;;;;;;12.30;4.50;;;;;;;11.89;100.00;99996.70;109463;1250;65683;-54
2024/04/02 01:15:35;;;;;;;11.40;5.40;;;;;;;11.84;100.00;99991.98;109227;1251;72776;-54
2024/04/02 01:18:03;;;;;;;11.90;5.40;;;;;;;11.81;100.00;99990.23;109440;1251;60387;-55
2024/04/02 01:20:30;;;;;;;16.30;5.00;;;;;;;11.78;100.00;99989.56;109493;1251;59701;-54
2024/04/02 01:22:57;;;;;;;13.00;5.60;;;;;;;11.75;100.00;99984.05;109477;1251;75551;-54
2024/04/02 01:25:25;;;;;;;10.50;4.40;;;;;;;11.72;100.00;99986.34;109553;1251;67578;-54
2024/04/02 01:27:52;;;;;;;15.30;5.30;;;;;;;11.71;100.00;99984.92;109439;1253;72732;-57
2024/04/02 01:30:20;;;;;;;15.50;6.10;;;;;;;11.69;100.00;99984.23;109474;1251;59700;-54
2024/04/02 01:32:50;;;;;;;10.40;4.90;;;;;;;11.69;100.00;99981.39;109518;1251;60055;-53
2024/04/02 01:35:18;;;;;;;16.50;5.80;;;;;;;11.66;100.00;99984.44;109503;1250;75522;-54
2024/04/02 01:37:45;;;;;;;11.30;5.10;;;;;;;11.64;100.00;99983.15;109447;1251;64734;-58
2024/04/02 01:40:13;;;;;;;14.00;5.50;;;;;;;11.61;100.00;99984.94;109413;1250;72052;-54
2024/04/02 01:42:40;;;;;;;14.20;6.00;;;;;;;11.58;100.00;99986.61;109466;1251;60160;-54
2024/04/02 01:45:08;;;;;;;10.80;5.40;;;;;;;11.53;100.00;99986.52;109419;1255;60204;-54
2024/04/02 01:47:35;;;;;;;12.70;5.40;;;;;;;11.51;100.00;99986.88;109477;1253;74234;-54
2024/04/02 01:50:03;;;;;;;10.90;5.70;;;;;;;11.49;100.00;99992.46;109440;1250;66251;-58
2024/04/02 01:52:30;;;;;;;13.80;5.70;;;;;;;11.46;100.00;99988.14;109423;1251;71702;-54
2024/04/02 01:54:58;;;;;;;16.40;6.50;;;;;;;11.42;100.00;99987.77;109471;1254;60080;-54
2024/04/02 01:57:25;;;;;;;12.40;5.20;;;;;;;11.37;100.00;99984.86;109503;1251;59819;-54
2024/04/02 01:59:53;;;;;;;13.90;5.30;;;;;;;11.33;100.00;99989.38;109497;1252;74289;-54
2024/04/02 02:02:20;;;;;;;11.20;4.80;;;;;;;11.29;100.00;99984.30;109484;1251;65635;-55
2024/04/02 02:04:47;;;;;;;11.60;5.20;;;;;;;11.26;100.00;99982.20;109532;1253;72773;-54
2024/04/02 02:07:15;;;;;;;16.50;6.20;;;;;;;11.21;100.00;99986.95;109497;1251;60256;-54
2024/04/02 02:09:42;;;;;;;12.90;5.70;;;;;;;11.18;100.00;99988.39;109503;1250;60165;-54
2024/04/02 02:12:10;;;;;;;16.40;5.90;;;;;;;11.17;100.00;99990.27;109454;1253;74894;-55
2024/04/02 02:14:37;;;;;;;13.40;5.90;;;;;;;11.16;100.00;99991.70;109449;1251;66788;-54
2024/04/02 02:17:05;;;;;;;17.20;6.60;;;;;;;11.15;100.00;99997.77;109451;1252;72708;-54
2024/04/02 02:19:32;;;;;;;13.50;6.50;;;;;;;11.14;100.00;99996.23;109457;1251;60092;-54
2024/04/02 02:21:59;;;;;;;15.40;6.60;;;;;;;11.09;100.00;99993.31;109500;1251;60075;-54
2024/04/02 02:24:27;;;;;;;18.60;6.30;;;;;;;11.07;100.00;99992.95;109416;1250;75442;-53
2024/04/02 02:26:55;;;;;;;18.20;7.00;;;;;;;11.04;100.00;99991.00;109482;1251;65612;-54
2024/04/02 02:29:25;;;;;;;21.40;7.70;;;;;;;10.99;100.00;99988.56;109522;1251;72696;-54
2024/04/02 02:31:52;;;;;;;16.90;7.60;;;;;;;10.92;100.00;99989.84;109472;1250;60153;-54
2024/04/02 02:34:20;;;;;;;19.70;8.60;;;;;;;10.86;100.00;99987.56;109501;1251;60121;-54
2024/04/02 02:36:47;;;;;;;20.30;9.40;;;;;;;10.80;100.00;99989.09;109473;1252;76366;-54
2024/04/02 02:39:15;;;;;;;17.20;9.00;;;;;;;10.75;100.00;99988.54;109471;1250;67288;-54
2024/04/02 02:41:45;;;;;;;20.90;9.90;;;;;;;10.71;100.00;99989.23;109467;1251;71405;-53
2024/04/02 02:44:12;;;;;;;16.90;8.70;;;;;;;10.68;100.00;99994.30;109370;1251;60244;-54
2024/04/02 02:46:39;;;;;;;16.70;8.90;;;;;;;10.66;100.00;99996.26;109434;1251;59739;-54
2024/04/02 02:49:07;;;;;;;22.10;9.80;;;;;;;10.67;100.00;99999.98;109480;1251;75499;-54
2024/04/02 02:51:34;;;;;;;19.10;9.30;;;;;;;10.64;100.00;100000.29;109499;1251;67194;-54
2024/04/02 02:54:03;;;;;;;15.00;9.20;;;;;;;10.59;100.00;100004.39;109504;1253;71458;-54
2024/04/02 02:56:30;;;;;;;24.00;9.70;;;;;;;10.56;100.00;100005.04;109445;1250;60226;-54
2024/04/02 02:58:58;;;;;;;19.90;10.30;;;;;;;10.51;100.00;100003.99;109402;1255;59853;-55
2024/04/02 03:01:25;;;;;;;19.00;10.20;;;;;;;10.48;100.00;100006.66;109481;1251;75492;-54
2024/04/02 03:03:53;;;;;;;22.60;11.20;;;;;;;10.44;100.00;100006.11;109465;1251;66795;-54
2024/04/02 03:06:20;;;;;;;24.60;11.60;;;;;;;10.42;100.00;100001.42;109525;1251;71798;-53
2024/04/02 03:08:48;;;;;;;24.00;11.70;;;;;;;10.42;100.00;100001.48;109415;1252;59774;-55
2024/04/02 03:11:15;;;;;;;26.60;11.50;;;;;;;10.42;100.00;99999.05;109434;1254;60013;-55
2024/04/02 03:13:42;;;;;;;26.20;11.60;;;;;;;10.45;100.00;99995.15;109508;1254;75507;-54
2024/04/02 03:16:10;;;;;;;24.50;12.30;;;;;;;10.48;100.00;99995.16;109554;1250;67001;-53
2024/04/02 03:18:37;;;;;;;20.60;10.70;;;;;;;10.51;100.00;99993.66;109445;1254;72777;-54
2024/04/02 03:21:05;;;;;;;22.70;11.00;;;;;;;10.52;100.00;99989.98;109388;1251;59804;-54
2024/04/02 03:23:32;;;;;;;25.70;11.00;;;;;;;10.55;100.00;99990.88;109471;1251;59958;-54
2024/04/02 03:26:00;;;;;;;20.60;10.00;;;;;;;10.58;100.00;99987.65;109445;1251;75547;-54
2024/04/02 03:28:30;;;;;;;22.40;11.00;;;;;;;10.64;100.00;99983.85;109487;1252;66988;-54
2024/04/02 03:30:59;;;;;;;20.50;9.90;;;;;;;10.70;100.00;99986.54;109457;1251;72031;-54
2024/04/02 03:33:29;;;;;;;23.20;10.30;;;;;;;10.78;100.00;99982.46;109476;1251;59764;-54
2024/04/02 03:36:06;;;;;;;20.30;10.30;;;;;;;10.87;100.00;99979.58;109490;1251;60265;-54
2024/04/02 03:38:34;;;;;;;18.40;9.00;;;;;;;10.99;100.00;99981.42;109397;1255;75477;-58
2024/04/02 03:41:12;;;;;;;18.20;10.20;;;;;;;11.12;100.00;99982.21;109514;1250;66244;-54
2024/04/02 03:43:43;;;;;;;19.20;8.90;;;;;;;11.28;100.00;99984.19;109478;1251;71695;-54
2024/04/02 03:46:11;;;;;;;18.70;9.20;;;;;;;11.44;100.00;99979.90;109431;1251;60186;-53
2024/04/02 03:48:38;;;;;;;18.60;9.60;;;;;;;11.60;100.00;99985.13;109450;1251;60253;-54
2024/04/02 03:51:06;;;;;;;18.70;9.90;;;;;;;11.78;100.00;99988.45;109493;1251;75485;-55
2024/04/02 03:53:33;;;;;;;18.00;9.20;;;;;;;11.93;100.00;99987.98;109469;1251;65877;-54
2024/04/02 03:56:02;;;;;;;18.90;9.70;;;;;;;12.11;100.00;99987.57;109456;1251;71390;-54
2024/04/02 03:58:30;;;;;;;27.90;10.60;;;;;;;12.31;100.00;99989.67;109426;1251;59873;-59
2024/04/02 04:00:57;;;;;;;16.90;9.30;;;;;;;12.49;100.00;99986.77;109427;1251;61415;-54
2024/04/02 04:03:26;;;;;;;20.60;9.60;;;;;;;12.69;100.00;99983.66;109474;1254;74579;-54
2024/04/02 04:06:00;;;;;;;19.80;9.30;;;;;;;12.90;100.00;99975.90;109467;1251;67079;-54
2024/04/02 04:08:28;;;;;;;21.30;9.30;;;;;;;13.16;100.00;99973.43;109356;1255;73276;-54
2024/04/02 04:10:56;;;;;;;17.10;9.20;;;;;;;13.40;100.00;99975.36;109439;1251;60208;-54
2024/04/02 04:13:23;;;;;;;17.70;8.20;;;;;;;13.66;100.00;99969.80;109533;1251;59713;-55
2024/04/02 04:15:58;;;;;;;17.40;9.20;;;;;;;13.90;100.00;99967.48;109532;1251;75540;-54
2024/04/02 04:18:26;;;;;;;20.10;8.90;;;;;;;14.11;100.00;99968.39;109434;1251;66942;-55
2024/04/02 04:21:03;;;;;;;21.10;9.10;;;;;;;14.33;100.00;99964.66;109423;1251;72824;-54
2024/04/02 04:23:30;;;;;;;20.30;9.10;;;;;;;14.58;100.00;99963.75;109432;1252;59747;-55
2024/04/02 04:26:02;;;;;;;16.70;8.20;;;;;;;14.80;100.00;99963.17;109439;1251;59904;-55
2024/04/02 04:28:29;;;;;;;18.90;8.10;;;;;;;15.03;100.00;99969.88;109471;1250;77790;-54
2024/04/02 04:30:59;;;;;;;19.20;9.20;;;;;;;15.24;100.00;99966.86;109439;1256;65754;-55
2024/04/02 04:33:26;;;;;;;17.30;8.00;;;;;;;15.43;100.00;99970.00;109434;1251;72800;-54
2024/04/02 04:35:55;;;;;;;18.30;9.00;;;;;;;15.56;100.00;99965.40;109433;1251;59791;-55
2024/04/02 04:38:24;;;;;;;16.70;8.00;;;;;;;15.69;100.00;99963.98;109445;1256;59717;-54
2024/04/02 04:40:52;;;;;;;15.70;6.90;;;;;;;15.82;100.00;99962.59;109495;1251;75610;-55
2024/04/02 04:43:19;;;;;;;14.60;7.20;;;;;;;15.90;100.00;99955.86;109460;1251;66936;-55
2024/04/02 04:45:53;;;;;;;16.40;7.40;;;;;;;16.06;100.00;99956.39;109458;1254;72733;-54
2024/04/02 04:48:21;;;;;;;12.80;6.40;;;;;;;16.32;100.00;99952.23;109462;1251;60331;-54
2024/04/02 04:50:59;;;;;;;19.90;7.50;;;;;;;16.57;100.00;99947.15;109484;1251;60304;-55
2024/04/02 04:53:26;;;;;;;15.10;7.70;;;;;;;16.77;100.00;99945.59;109507;1251;75599;-54
2024/04/02 04:56:06;;;;;;;15.30;7.00;;;;;;;16.97;100.00;99943.04;109414;1256;65769;-59
2024/04/02 04:58:34;;;;;;;14.40;6.90;;;;;;;17.14;98.83;99940.52;109434;1251;72708;-55
2024/04/02 05:01:02;;;;;;;14.40;6.60;;;;;;;17.34;97.46;99940.75;109486;1251;59735;-54
2024/04/02 05:03:30;;;;;;;16.50;6.80;;;;;;;17.56;93.18;99946.15;109493;1251;59804;-54
2024/04/02 05:06:04;;;;;;;12.40;6.50;;;;;;;17.70;90.63;99945.29;109420;1251;77400;-55
2024/04/02 05:08:33;;;;;;;17.60;7.10;;;;;;;17.77;88.93;99941.50;109452;1255;66960;-55
2024/04/02 05:11:02;;;;;;;14.50;6.40;;;;;;;17.84;88.01;99941.08;109440;1251;72711;-54
2024/04/02 05:13:30;;;;;;;12.40;7.00;;;;;;;17.89;86.20;99943.06;109446;1251;59835;-58
2024/04/02 05:15:57;;;;;;;18.70;7.90;;;;;;;17.80;85.38;99941.48;109442;1251;60030;-55
2024/04/02 05:18:25;;;;;;;15.10;7.10;;;;;;;17.67;87.20;99944.23;109488;1251;75529;-55
2024/04/02 05:20:52;;;;;;;17.30;6.90;;;;;;;17.55;89.08;99947.83;109485;1251;66217;-55
2024/04/02 05:23:21;;;;;;;23.40;7.80;;;;;;;17.47;90.92;99939.03;109453;1253;72770;-54
2024/04/02 05:25:48;;;;;;;16.50;7.30;;;;;;;17.39;92.81;99937.36;109381;1251;59845;-54
2024/04/02 05:28:16;;;;;;;13.10;6.50;;;;;;;17.38;95.38;99932.45;109423;1251;59765;-54
2024/04/02 05:30:43;;;;;;;18.00;7.20;;;;;;;17.44;96.68;99937.30;109460;1250;74225;-55
2024/04/02 05:33:10;;;;;;;17.50;7.30;;;;;;;17.50;96.20;99936.55;109451;1251;67403;-55
2024/04/02 05:35:38;;;;;;;18.10;8.00;;;;;;;17.49;96.34;99934.11;109438;1252;72682;-59
2024/04/02 05:38:06;;;;;;;17.30;7.80;;;;;;;17.41;97.51;99930.20;109423;1251;59674;-54
2024/04/02 05:40:34;;;;;;;18.00;7.40;;;;;;;17.34;99.16;99930.05;109440;1251;60482;-55
2024/04/02 05:43:01;;;;;;;17.00;7.70;;;;;;;17.26;100.00;99929.48;109421;1251;74179;-55
2024/04/02 05:45:29;;;;;;;17.70;7.30;;;;;;;17.25;100.00;99927.84;109429;1251;65500;-55
2024/04/02 05:47:56;;;;;;;17.50;7.10;;;;;;;17.34;100.00;99927.46;109427;1251;72701;-57
2024/04/02 05:50:24;;;;;;;15.00;7.30;;;;;;;17.48;100.00;99931.52;109413;1251;59792;-55
2024/04/02 05:52:51;;;;;;;17.80;8.40;;;;;;;17.68;100.00;99931.04;109420;1251;60171;-55
2024/04/02 05:55:18;;;;;;;16.60;7.10;;;;;;;17.85;99.05;99930.08;109414;1251;74797;-55
2024/04/02 05:57:46;;;;;;;15.30;6.30;;;;;;;17.88;97.13;99928.19;109424;1251;66077;-55
2024/04/02 06:00:13;;;;;;;19.70;8.00;;;;;;;17.90;98.10;99929.01;109416;1251;73318;-55
2024/04/02 06:02:44;;;;;;;17.10;7.60;;;;;;;18.02;98.47;99922.48;109355;1254;60146;-55
2024/04/02 06:05:11;;;;;;;17.00;8.10;;;;;;;18.21;97.38;99918.09;109401;1254;59678;-55
2024/04/02 06:07:39;;;;;;;18.30;8.60;;;;;;;18.44;94.12;99914.50;109449;1251;75562;-56
2024/04/02 06:10:06;;;;;;;20.70;8.80;;;;;;;18.67;91.38;99911.87;109402;1251;69577;-58
2024/04/02 06:12:35;;;;;;;18.70;9.20;;;;;;;18.88;88.85;99910.52;109395;1251;71385;-55
2024/04/02 06:15:02;;;;;;;18.90;8.60;;;;;;;19.12;86.14;99909.30;109395;1251;60318;-55
2024/04/02 06:17:30;;;;;;;15.80;7.70;;;;;;;19.37;82.26;99908.40;109394;1250;59820;-56
2024/04/02 06:19:57;;;;;;;18.50;7.70;;;;;;;19.58;79.53;99911.84;109456;1251;77692;-55
2024/04/02 06:22:28;;;;;;;15.80;7.30;;;;;;;19.87;77.48;99911.75;109415;1251;66772;-59
2024/04/02 06:24:56;;;;;;;20.60;8.10;;;;;;;20.19;73.77;99911.45;109450;1251;72862;-55
2024/04/02 06:27:23;;;;;;;16.40;7.90;;;;;;;20.56;68.98;99908.77;109454;1253;61161;-55
2024/04/02 06:29:52;;;;;;;20.60;9.30;;;;;;;20.84;65.02;99903.77;109486;1251;62729;-54
2024/04/02 06:32:22;;;;;;;15.60;7.90;;;;;;;21.08;64.38;99899.70;109397;1251;78356;-59
2024/04/02 06:34:49;;;;;;;14.30;7.50;;;;;;;21.41;61.31;99893.27;109435;1251;68109;-55
2024/04/02 06:37:17;;;;;;;17.70;8.90;;;;;;;21.68;57.57;99893.16;109419;1251;75264;-55
2024/04/02 06:39:44;;;;;;;20.40;9.10;;;;;;;21.71;55.52;99888.74;109423;1251;62022;-55
2024/04/02 06:42:12;;;;;;;16.00;8.10;;;;;;;21.60;56.50;99890.50;109438;1251;61469;-56
2024/04/02 06:44:39;;;;;;;20.90;7.80;;;;;;;21.53;56.97;99890.60;109397;1251;76442;-55
2024/04/02 06:47:07;;;;;;;20.00;7.90;;;;;;;21.56;58.08;99889.06;109427;1251;69492;-55
2024/04/02 06:49:35;;;;;;;18.80;8.20;;;;;;;21.65;57.54;99893.36;109427;1251;75670;-56
2024/04/02 06:52:03;;;;;;;16.60;8.30;;;;;;;21.76;57.40;99894.80;109439;1253;62045;-56
2024/04/02 06:54:31;;;;;;;14.40;7.20;;;;;;;21.94;56.65;99893.95;109426;1251;61198;-57
2024/04/02 06:56:58;;;;;;;16.20;8.60;;;;;;;22.14;55.20;99889.83;109410;1251;78433;-54
2024/04/02 06:59:26;;;;;;;15.90;7.80;;;;;;;22.30;54.21;99886.21;109421;1251;69586;-55
2024/04/02 07:01:53;;;;;;;18.30;9.40;;;;;;;22.44;53.32;99887.08;109364;1251;73364;-54
2024/04/02 07:04:21;;;;;;;24.10;9.80;;;;;;;22.52;52.49;99882.21;109396;1251;61164;-55
2024/04/02 07:06:48;;;;;;;18.30;9.40;;;;;;;22.53;52.08;99881.99;109396;1251;61601;-55
2024/04/02 07:09:16;;;;;;;20.00;8.30;;;;;;;22.58;52.71;99879.33;109397;1251;77967;-55
2024/04/02 07:11:44;;;;;;;17.50;8.80;;;;;;;22.68;51.73;99874.83;109455;1251;69979;-54
2024/04/02 07:14:11;;;;;;;16.90;7.90;;;;;;;22.73;52.30;99877.20;109454;1251;74752;-55
2024/04/02 07:16:39;;;;;;;21.10;9.40;;;;;;;22.88;51.57;99871.34;109386;1251;61198;-58
2024/04/02 07:19:06;;;;;;;15.10;8.00;;;;;;;23.02;50.69;99867.94;109467;1251;61152;-54
2024/04/02 07:21:34;;;;;;;22.80;9.00;;;;;;;23.12;50.49;99859.00;109466;1250;77921;-55
2024/04/02 07:24:02;;;;;;;20.20;7.90;;;;;;;23.21;49.63;99856.60;109438;1251;68865;-55
2024/04/02 07:26:30;;;;;;;24.00;8.90;;;;;;;23.26;49.55;99854.39;109451;1251;74157;-54
2024/04/02 07:28:58;;;;;;;21.30;10.40;;;;;;;23.40;49.28;99847.15;109420;1251;62371;-57
2024/04/02 07:31:25;;;;;;;20.80;10.20;;;;;;;23.56;48.14;99846.50;109424;1251;61111;-55
2024/04/02 07:33:53;;;;;;;21.50;9.30;;;;;;;23.58;48.01;99841.91;109471;1251;78000;-55
2024/04/02 07:36:20;;;;;;;19.10;9.30;;;;;;;23.50;47.89;99835.31;109425;1251;69216;-54
2024/04/02 07:38:48;;;;;;;22.30;11.20;;;;;;;23.40;48.36;99834.59;109394;1251;74699;-56
2024/04/02 07:41:16;;;;;;;23.70;9.90;;;;;;;23.49;48.53;99822.92;109425;1251;62602;-55
2024/04/02 07:43:43;;;;;;;19.90;10.10;;;;;;;23.57;48.25;99826.02;109430;1251;62592;-55
2024/04/02 07:46:11;;;;;;;24.10;12.60;;;;;;;23.64;48.75;99822.80;109439;1251;77453;-54
2024/04/02 07:48:38;;;;;;;23.10;13.30;;;;;;;23.85;48.48;99818.53;109391;1251;67853;-54
2024/04/02 07:51:09;;;;;;;26.10;12.80;;;;;;;24.03;47.65;99816.22;109406;1251;73891;-55
2024/04/02 07:53:37;;;;;;;;;;;;;;;24.24;46.26;99813.37;109479;1252;60993;-54
2024/04/02 07:56:05;;;;;;;25.30;10.40;;;;;;;24.31;46.13;99809.45;109402;1251;60694;-55
2024/04/02 07:58:32;;;;;;;20.40;12.20;;;;;;;24.40;46.11;99807.55;109432;1250;78049;-54
2024/04/02 08:01:00;;;;;;;25.30;13.40;;;;;;;24.59;45.16;99800.88;109402;1251;69475;-58
2024/04/02 08:03:28;;;;;;;19.50;10.40;;;;;;;24.84;44.26;99803.83;109428;1250;74707;-55
2024/04/02 08:06:00;;;;;;;19.00;8.70;;;;;;;25.13;42.78;99804.21;109404;1251;62671;-55
2024/04/02 08:08:28;;;;;;;18.30;8.70;;;;;;;25.45;41.93;99804.89;109426;1251;62382;-55
2024/04/02 08:10:55;;;;;;;16.50;6.50;;;;;;;25.75;40.17;99805.98;109329;1251;77977;-56
2024/04/02 08:13:23;;;;;;;15.60;6.00;;;;;;;25.83;38.89;99802.65;109423;1251;68344;-54
2024/04/02 08:15:50;;;;;;;20.00;7.90;;;;;;;25.74;39.06;99801.92;109459;1251;75101;-55
2024/04/02 08:18:18;;;;;;;20.00;6.10;;;;;;;25.72;39.25;99794.16;109437;1251;62272;-54
2024/04/02 08:20:46;;;;;;;13.00;5.70;;;;;;;25.84;38.62;99793.12;109482;1251;61951;-54
2024/04/02 08:23:13;;;;;;;11.90;4.90;;;;;;;26.04;38.42;99790.02;109361;1251;78405;-55
2024/04/02 08:25:42;;;;;;;12.60;4.90;;;;;;;26.28;37.41;99783.34;109453;1250;69030;-54
2024/04/02 08:28:10;;;;;;;16.70;6.30;;;;;;;26.41;36.69;99788.15;109430;1251;74493;-56
2024/04/02 08:30:37;;;;;;;20.40;6.40;;;;;;;26.56;36.66;99787.38;109415;1253;61007;-55
2024/04/02 08:33:05;;;;;;;15.10;5.90;;;;;;;26.72;35.99;99783.61;109437;1251;61927;-55
2024/04/02 08:35:32;;;;;;;16.90;5.70;;;;;;;26.78;35.47;99777.52;109435;1251;77964;-55
2024/04/02 08:38:00;;;;;;;14.90;5.90;;;;;;;26.86;35.39;99771.56;109436;1251;69307;-55
2024/04/02 08:40:32;;;;;;;13.10;5.30;;;;;;;26.99;35.01;99768.01;109400;1251;73708;-56
2024/04/02 08:43:05;;;;;;;16.60;5.00;;;;;;;27.12;34.73;99765.67;109387;1251;62656;-55
2024/04/02 08:45:33;;;;;;;16.40;6.10;;;;;;;27.26;34.53;99764.86;109358;1251;62602;-58
2024/04/02 08:48:01;;;;;;;14.30;6.10;;;;;;;27.39;33.78;99764.91;109361;1251;78223;-56
2024/04/02 08:50:29;;;;;;;12.80;5.90;;;;;;;27.57;33.97;99760.14;109474;1251;69974;-55
2024/04/02 08:52:56;;;;;;;12.10;6.10;;;;;;;27.75;33.75;99758.19;109406;1252;75266;-55
2024/04/02 08:55:25;;;;;;;20.00;6.80;;;;;;;27.71;33.52;99754.53;109378;1251;61146;-57
2024/04/02 08:57:52;;;;;;;18.60;6.90;;;;;;;27.61;34.21;99753.45;109423;1251;61227;-56
2024/04/02 09:00:20;;;;;;;15.50;6.40;;;;;;;27.68;33.92;99750.70;109372;1251;77360;-55
2024/04/02 09:02:48;;;;;;;21.00;5.90;;;;;;;27.69;33.79;99743.23;109445;1251;68524;-56
2024/04/02 09:05:15;;;;;;;15.40;6.70;;;;;;;27.69;34.28;99745.23;109425;1251;74162;-56
2024/04/02 09:07:43;;;;;;;19.20;5.80;;;;;;;27.85;34.24;99736.93;109414;1251;62131;-59
2024/04/02 09:10:11;;;;;;;25.20;7.40;;;;;;;28.06;33.88;99733.61;109411;1251;62325;-55
2024/04/02 09:12:38;;;;;;;15.50;6.70;;;;;;;28.26;33.80;99728.02;109450;1251;77420;-56
2024/04/02 09:15:07;;;;;;;17.90;6.60;;;;;;;28.42;33.28;99720.34;109455;1251;68893;-56
2024/04/02 09:17:34;;;;;;;20.10;7.70;;;;;;;28.58;32.86;99713.77;109428;1251;74136;-60
2024/04/02 09:20:02;;;;;;;22.40;7.00;;;;;;;28.63;32.05;99710.78;109401;1252;61602;-55
2024/04/02 09:22:30;;;;;;;13.60;5.90;;;;;;;28.55;31.74;99710.42;109483;1251;62580;-55
2024/04/02 09:24:57;;;;;;;16.30;5.70;;;;;;;28.29;32.20;99709.02;109440;1251;78027;-55
2024/04/02 09:27:26;;;;;;;15.60;6.20;;;;;;;28.13;32.69;99701.27;109457;1251;67570;-55
2024/04/02 09:29:54;;;;;;;19.10;4.90;;;;;;;28.17;32.75;99694.86;109418;1250;74789;-55
2024/04/02 09:32:23;;;;;;;12.60;5.10;;;;;;;28.25;32.39;99689.56;109401;1251;62605;-55
2024/04/02 09:34:52;;;;;;;16.00;4.50;;;;;;;28.34;31.78;99688.13;109346;1250;62587;-55
2024/04/02 09:37:34;;;;;;;16.70;5.30;;;;;;;28.34;31.18;99693.80;109453;1251;78074;-55
2024/04/02 09:40:03;;;;;;;14.00;4.90;;;;;;;28.23;31.02;99686.53;109415;1252;69501;-56
2024/04/02 09:42:31;;;;;;;17.60;5.20;;;;;;;28.01;31.04;99692.59;109478;1251;75274;-54
2024/04/02 09:44:59;;;;;;;13.90;5.50;;;;;;;27.77;31.69;99690.22;109444;1251;61898;-55
2024/04/02 09:47:27;;;;;;;11.50;4.40;;;;;;;27.75;31.96;99686.64;109348;1250;62774;-55
2024/04/02 09:49:54;;;;;;;20.20;5.40;;;;;;;27.77;31.78;99691.73;109400;1251;78421;-55
2024/04/02 09:52:25;;;;;;;11.90;4.40;;;;;;;27.76;31.86;99689.38;109420;1250;68516;-55
2024/04/02 09:54:53;;;;;;;11.30;4.40;;;;;;;27.76;31.59;99677.29;109456;1250;74742;-54
2024/04/02 09:57:21;;;;;;;19.20;5.50;;;;;;;27.79;31.51;99669.80;109395;1253;62588;-59
2024/04/02 09:59:48;;;;;;;12.50;5.10;;;;;;;27.78;30.99;99664.23;109391;1251;61662;-55
2024/04/02 10:02:22;;;;;;;16.30;4.30;;;;;;;27.72;31.00;99658.02;109452;1250;78058;-54
2024/04/02 10:04:54;;;;;;;15.30;5.10;;;;;;;27.68;31.38;99656.20;109501;1251;68505;-55
2024/04/02 10:07:29;;;;;;;19.60;5.80;;;;;;;27.71;30.99;99651.92;109312;1251;74854;-58
2024/04/02 10:09:57;;;;;;;17.20;6.40;;;;;;;27.66;30.28;99652.77;109401;1252;62776;-54
2024/04/02 10:12:32;;;;;;;21.40;5.10;;;;;;;27.55;30.01;99645.65;109393;1250;63061;-55
2024/04/02 10:15:12;;;;;;;18.60;4.50;;;;;;;27.43;30.37;99640.13;109350;1250;77556;-54
2024/04/02 10:17:39;;;;;;;21.60;5.80;;;;;;;27.40;30.65;99640.25;109463;1251;68965;-54
2024/04/02 10:20:16;;;;;;;18.00;6.70;;;;;;;27.46;30.58;99640.36;109450;1251;75738;-54
2024/04/02 10:22:44;;;;;;;15.70;5.40;;;;;;;27.49;30.33;99628.86;109425;1250;61500;-55
2024/04/02 10:25:14;;;;;;;25.50;7.20;;;;;;;27.47;30.24;99622.67;109414;1251;61426;-56
2024/04/02 10:27:44;;;;;;;17.00;4.60;;;;;;;27.53;30.39;99617.32;109313;1251;78205;-55
2024/04/02 10:30:16;;;;;;;19.30;4.50;;;;;;;27.58;30.19;99613.15;109468;1251;68936;-54
2024/04/02 10:32:44;;;;;;;18.10;5.80;;;;;;;27.74;30.23;99606.16;109432;1251;74134;-54
2024/04/02 10:35:29;;;;;;;17.00;4.80;;;;;;;27.97;29.54;99600.63;109400;1251;61574;-55
2024/04/02 10:37:58;;;;;;;17.00;5.00;;;;;;;28.16;28.80;99590.48;109441;1251;62157;-54
2024/04/02 10:40:26;;;;;;;15.70;5.10;;;;;;;28.27;28.49;99587.84;109398;1251;78163;-54
2024/04/02 10:42:54;;;;;;;11.60;4.30;;;;;;;28.44;28.08;99582.40;109428;1251;68882;-56
2024/04/02 10:45:21;;;;;;;20.90;5.20;;;;;;;28.50;28.09;99581.15;109358;1250;75709;-55
2024/04/02 10:47:52;;;;;;;15.00;6.20;;;;;;;28.62;27.65;99575.13;109471;1252;61489;-54
2024/04/02 10:50:20;;;;;;;;;;;;;;;28.71;27.02;99575.48;109504;1251;61474;-55
2024/04/02 10:52:48;;;;;;;13.70;4.90;;;;;;;28.73;27.21;99572.06;109440;1251;76730;-55
2024/04/02 10:55:16;;;;;;;14.90;5.50;;;;;;;28.84;26.80;99559.56;109505;1250;67932;-55
2024/04/02 10:57:43;;;;;;;20.70;5.80;;;;;;;29.02;26.68;99549.32;109422;1250;75238;-55
2024/04/02 11:00:15;;;;;;;15.90;4.80;;;;;;;29.10;26.05;99549.79;109375;1251;61309;-54
2024/04/02 11:02:43;;;;;;;14.40;5.40;;;;;;;29.12;26.18;99534.38;109321;1251;60938;-55
2024/04/02 11:05:16;;;;;;;14.00;4.60;;;;;;;29.27;25.89;99533.45;109484;1250;76464;-55
2024/04/02 11:07:45;;;;;;;12.40;4.20;;;;;;;29.46;25.13;99524.39;109464;1251;69655;-54
2024/04/02 11:10:12;;;;;;;16.60;4.80;;;;;;;29.57;25.00;99523.05;109416;1251;73986;-56
2024/04/02 11:12:40;;;;;;;14.00;5.40;;;;;;;29.68;24.79;99520.25;109395;1251;62125;-54
2024/04/02 11:15:12;;;;;;;26.50;5.60;;;;;;;29.75;24.43;99522.72;109182;1251;328978;-54
2024/04/02 11:17:40;;;;;;;37.60;8.00;;;;;;;29.75;24.38;99516.97;109458;1250;76895;-55